Terminal Aerodrome Forecast
Issued by NWS

Home | Current Version | Previous Version | Text Only | Print | Product List | Glossary On
Versions: 1 2 3 4 5 6 7 8 9 10 11 12 13 14 15 16 17 18 19 20
000
FTUS43 KDDC 241411 AAA
TAFHYS
TAF AMD
KHYS 241411Z 2414/2512 32017G22KT P6SM -SN OVC011
     FM241600 34021G31KT P6SM OVC020
     FM242100 35022G32KT P6SM BKN035
     FM250100 34013G21KT P6SM OVC150
     FM250400 34009KT P6SM BKN200=

USA.gov is the U.S. government's official web portal to all federal, state and local government web resources and services.